sensor_id;sensor_type;location;lat;lon;timestamp;temperature;humidity
22383;DHT22;11359;45.802;13.530;2023-02-17T00:01:30;18.30;44.10
22383;DHT22;11359;45.802;13.530;2023-02-17T00:03:56;18.30;44.10
22383;DHT22;11359;45.802;13.530;2023-02-17T00:06:25;18.20;44.10
22383;DHT22;11359;45.802;13.530;2023-02-17T00:08:52;18.20;44.20
22383;DHT22;11359;45.802;13.530;2023-02-17T00:11:18;18.20;44.30
22383;DHT22;11359;45.802;13.530;2023-02-17T00:13:44;18.10;44.30
22383;DHT22;11359;45.802;13.530;2023-02-17T00:16:13;18.10;44.30
22383;DHT22;11359;45.802;13.530;2023-02-17T00:18:40;18.10;44.40
22383;DHT22;11359;45.802;13.530;2023-02-17T00:21:14;18.00;44.40
22383;DHT22;11359;45.802;13.530;2023-02-17T00:23:40;18.00;44.50
22383;DHT22;11359;45.802;13.530;2023-02-17T00:26:06;18.00;44.50
22383;DHT22;11359;45.802;13.530;2023-02-17T00:28:32;17.90;44.60
22383;DHT22;11359;45.802;13.530;2023-02-17T00:30:58;17.90;44.70
22383;DHT22;11359;45.802;13.530;2023-02-17T00:33:24;17.90;44.70
22383;DHT22;11359;45.802;13.530;2023-02-17T00:35:49;17.80;44.70
22383;DHT22;11359;45.802;13.530;2023-02-17T00:38:15;17.80;44.70
22383;DHT22;11359;45.802;13.530;2023-02-17T00:40:40;17.70;44.50
22383;DHT22;11359;45.802;13.530;2023-02-17T00:43:06;17.60;44.50
22383;DHT22;11359;45.802;13.530;2023-02-17T00:45:32;17.60;44.60
22383;DHT22;11359;45.802;13.530;2023-02-17T00:47:58;17.50;44.60
22383;DHT22;11359;45.802;13.530;2023-02-17T00:50:24;17.40;44.70
22383;DHT22;11359;45.802;13.530;2023-02-17T00:52:49;17.40;44.80
22383;DHT22;11359;45.802;13.530;2023-02-17T00:55:15;17.30;44.90
22383;DHT22;11359;45.802;13.530;2023-02-17T00:57:41;17.30;45.00
22383;DHT22;11359;45.802;13.530;2023-02-17T01:00:07;17.30;45.00
22383;DHT22;11359;45.802;13.530;2023-02-17T01:02:33;17.20;45.00
22383;DHT22;11359;45.802;13.530;2023-02-17T01:05:02;17.20;45.10
22383;DHT22;11359;45.802;13.530;2023-02-17T01:07:31;17.10;45.10
22383;DHT22;11359;45.802;13.530;2023-02-17T01:09:56;17.10;45.10
22383;DHT22;11359;45.802;13.530;2023-02-17T01:12:22;17.00;45.10
22383;DHT22;11359;45.802;13.530;2023-02-17T01:14:48;17.00;45.10
22383;DHT22;11359;45.802;13.530;2023-02-17T01:17:14;17.00;45.20
22383;DHT22;11359;45.802;13.530;2023-02-17T01:19:39;16.90;45.20
22383;DHT22;11359;45.802;13.530;2023-02-17T01:22:05;16.90;45.20
22383;DHT22;11359;45.802;13.530;2023-02-17T01:24:30;16.80;45.20
22383;DHT22;11359;45.802;13.530;2023-02-17T01:26:56;16.80;45.30
22383;DHT22;11359;45.802;13.530;2023-02-17T01:29:22;16.70;45.30
22383;DHT22;11359;45.802;13.530;2023-02-17T01:31:47;16.70;46.00
22383;DHT22;11359;45.802;13.530;2023-02-17T01:34:13;16.70;45.50
22383;DHT22;11359;45.802;13.530;2023-02-17T01:36:39;16.60;45.50
22383;DHT22;11359;45.802;13.530;2023-02-17T01:39:05;16.60;45.60
22383;DHT22;11359;45.802;13.530;2023-02-17T01:41:31;16.60;45.70
22383;DHT22;11359;45.802;13.530;2023-02-17T01:44:14;16.50;45.80
22383;DHT22;11359;45.802;13.530;2023-02-17T01:46:43;16.50;45.80
22383;DHT22;11359;45.802;13.530;2023-02-17T01:49:33;16.40;45.90
22383;DHT22;11359;45.802;13.530;2023-02-17T01:52:13;16.40;46.00
22383;DHT22;11359;45.802;13.530;2023-02-17T01:54:48;16.40;46.10
22383;DHT22;11359;45.802;13.530;2023-02-17T01:57:20;16.40;46.30
22383;DHT22;11359;45.802;13.530;2023-02-17T01:59:47;16.30;46.30
22383;DHT22;11359;45.802;13.530;2023-02-17T02:02:13;16.30;46.40
22383;DHT22;11359;45.802;13.530;2023-02-17T02:04:42;16.30;46.50
22383;DHT22;11359;45.802;13.530;2023-02-17T02:07:14;16.30;46.60
22383;DHT22;11359;45.802;13.530;2023-02-17T02:09:48;16.30;46.60
22383;DHT22;11359;45.802;13.530;2023-02-17T02:14:42;16.20;46.70
22383;DHT22;11359;45.802;13.530;2023-02-17T02:28:54;16.10;47.00
22383;DHT22;11359;45.802;13.530;2023-02-17T02:34:41;16.00;46.90
22383;DHT22;11359;45.802;13.530;2023-02-17T02:37:43;15.90;46.90
22383;DHT22;11359;45.802;13.530;2023-02-17T02:39:51;15.90;47.10
22383;DHT22;11359;45.802;13.530;2023-02-17T02:42:21;15.80;47.20
22383;DHT22;11359;45.802;13.530;2023-02-17T02:44:48;15.80;47.30
22383;DHT22;11359;45.802;13.530;2023-02-17T02:47:52;15.80;47.50
22383;DHT22;11359;45.802;13.530;2023-02-17T02:56:04;15.70;47.70
22383;DHT22;11359;45.802;13.530;2023-02-17T02:59:05;15.70;47.80
22383;DHT22;11359;45.802;13.530;2023-02-17T03:07:02;15.50;48.00
22383;DHT22;11359;45.802;13.530;2023-02-17T03:09:30;15.50;48.20
22383;DHT22;11359;45.802;13.530;2023-02-17T03:11:57;15.50;48.30
22383;DHT22;11359;45.802;13.530;2023-02-17T03:14:23;15.50;48.30
22383;DHT22;11359;45.802;13.530;2023-02-17T03:16:50;15.40;48.40
22383;DHT22;11359;45.802;13.530;2023-02-17T03:19:18;15.40;48.50
22383;DHT22;11359;45.802;13.530;2023-02-17T03:21:57;15.40;48.60
22383;DHT22;11359;45.802;13.530;2023-02-17T03:24:23;15.40;48.70
22383;DHT22;11359;45.802;13.530;2023-02-17T03:26:49;15.40;48.80
22383;DHT22;11359;45.802;13.530;2023-02-17T03:29:15;15.30;48.80
22383;DHT22;11359;45.802;13.530;2023-02-17T03:31:41;15.30;48.90
22383;DHT22;11359;45.802;13.530;2023-02-17T03:34:07;15.30;48.90
22383;DHT22;11359;45.802;13.530;2023-02-17T03:36:36;15.30;49.00
22383;DHT22;11359;45.802;13.530;2023-02-17T03:39:02;15.20;48.90
22383;DHT22;11359;45.802;13.530;2023-02-17T03:41:28;15.20;49.10
22383;DHT22;11359;45.802;13.530;2023-02-17T03:43:53;15.20;49.20
22383;DHT22;11359;45.802;13.530;2023-02-17T03:46:19;15.20;49.30
22383;DHT22;11359;45.802;13.530;2023-02-17T03:48:45;15.20;49.30
22383;DHT22;11359;45.802;13.530;2023-02-17T03:51:18;15.20;49.40
22383;DHT22;11359;45.802;13.530;2023-02-17T03:53:44;15.10;49.40
22383;DHT22;11359;45.802;13.530;2023-02-17T03:56:11;15.10;49.60
22383;DHT22;11359;45.802;13.530;2023-02-17T03:58:37;15.10;49.60
22383;DHT22;11359;45.802;13.530;2023-02-17T04:01:04;15.10;49.60
22383;DHT22;11359;45.802;13.530;2023-02-17T04:03:31;15.10;49.70
22383;DHT22;11359;45.802;13.530;2023-02-17T04:05:57;15.10;49.70
22383;DHT22;11359;45.802;13.530;2023-02-17T04:08:23;15.00;49.70
22383;DHT22;11359;45.802;13.530;2023-02-17T04:10:53;15.00;49.70
22383;DHT22;11359;45.802;13.530;2023-02-17T04:13:20;15.00;49.80
22383;DHT22;11359;45.802;13.530;2023-02-17T04:15:46;15.00;49.90
22383;DHT22;11359;45.802;13.530;2023-02-17T04:18:13;15.00;50.00
22383;DHT22;11359;45.802;13.530;2023-02-17T04:20:39;15.00;50.00
22383;DHT22;11359;45.802;13.530;2023-02-17T04:23:05;15.00;50.10
22383;DHT22;11359;45.802;13.530;2023-02-17T04:25:35;15.00;50.10
22383;DHT22;11359;45.802;13.530;2023-02-17T04:28:05;15.00;50.20
22383;DHT22;11359;45.802;13.530;2023-02-17T04:30:31;15.00;50.20
22383;DHT22;11359;45.802;13.530;2023-02-17T04:32:57;15.00;50.10
22383;DHT22;11359;45.802;13.530;2023-02-17T04:35:23;15.00;50.10
22383;DHT22;11359;45.802;13.530;2023-02-17T04:37:49;14.90;50.10
22383;DHT22;11359;45.802;13.530;2023-02-17T04:40:17;14.90;50.20
22383;DHT22;11359;45.802;13.530;2023-02-17T04:42:43;14.90;50.20
22383;DHT22;11359;45.802;13.530;2023-02-17T04:45:09;14.90;50.20
22383;DHT22;11359;45.802;13.530;2023-02-17T04:47:36;14.90;50.30
22383;DHT22;11359;45.802;13.530;2023-02-17T04:50:02;14.80;50.30
22383;DHT22;11359;45.802;13.530;2023-02-17T04:52:27;14.80;50.40
22383;DHT22;11359;45.802;13.530;2023-02-17T04:54:53;14.80;50.30
22383;DHT22;11359;45.802;13.530;2023-02-17T04:57:19;14.80;50.30
22383;DHT22;11359;45.802;13.530;2023-02-17T04:59:45;14.80;50.30
22383;DHT22;11359;45.802;13.530;2023-02-17T05:02:12;14.80;50.30
22383;DHT22;11359;45.802;13.530;2023-02-17T05:04:37;14.80;50.30
22383;DHT22;11359;45.802;13.530;2023-02-17T05:07:03;14.70;50.30
22383;DHT22;11359;45.802;13.530;2023-02-17T05:09:29;14.70;50.40
22383;DHT22;11359;45.802;13.530;2023-02-17T05:11:54;14.70;50.40
22383;DHT22;11359;45.802;13.530;2023-02-17T05:14:20;14.70;50.40
22383;DHT22;11359;45.802;13.530;2023-02-17T05:16:46;14.70;50.50
22383;DHT22;11359;45.802;13.530;2023-02-17T05:19:12;14.70;50.50
22383;DHT22;11359;45.802;13.530;2023-02-17T05:21:38;14.70;50.50
22383;DHT22;11359;45.802;13.530;2023-02-17T05:24:03;14.70;50.60
22383;DHT22;11359;45.802;13.530;2023-02-17T05:26:29;14.70;50.60
22383;DHT22;11359;45.802;13.530;2023-02-17T05:28:56;14.60;50.60
22383;DHT22;11359;45.802;13.530;2023-02-17T05:31:22;14.60;50.60
22383;DHT22;11359;45.802;13.530;2023-02-17T05:33:48;14.70;50.70
22383;DHT22;11359;45.802;13.530;2023-02-17T05:36:14;14.70;50.80
22383;DHT22;11359;45.802;13.530;2023-02-17T05:38:40;14.70;51.40
22383;DHT22;11359;45.802;13.530;2023-02-17T05:41:06;14.70;50.80
22383;DHT22;11359;45.802;13.530;2023-02-17T05:43:32;14.70;50.80
22383;DHT22;11359;45.802;13.530;2023-02-17T05:46:02;14.70;50.80
22383;DHT22;11359;45.802;13.530;2023-02-17T05:48:28;14.70;50.90
22383;DHT22;11359;45.802;13.530;2023-02-17T05:50:53;14.80;51.00
22383;DHT22;11359;45.802;13.530;2023-02-17T05:53:19;14.80;51.00
22383;DHT22;11359;45.802;13.530;2023-02-17T05:55:45;14.80;51.00
22383;DHT22;11359;45.802;13.530;2023-02-17T05:58:10;14.90;51.00
22383;DHT22;11359;45.802;13.530;2023-02-17T06:00:36;14.90;51.00
22383;DHT22;11359;45.802;13.530;2023-02-17T06:03:02;14.90;51.00
22383;DHT22;11359;45.802;13.530;2023-02-17T06:05:27;15.00;51.00
22383;DHT22;11359;45.802;13.530;2023-02-17T06:07:53;15.00;51.00
22383;DHT22;11359;45.802;13.530;2023-02-17T06:10:19;15.10;51.10
22383;DHT22;11359;45.802;13.530;2023-02-17T06:12:44;15.10;51.00
22383;DHT22;11359;45.802;13.530;2023-02-17T06:15:10;15.20;51.00
22383;DHT22;11359;45.802;13.530;2023-02-17T06:17:36;15.20;51.00
22383;DHT22;11359;45.802;13.530;2023-02-17T06:20:03;15.30;50.90
22383;DHT22;11359;45.802;13.530;2023-02-17T06:22:29;15.30;50.90
22383;DHT22;11359;45.802;13.530;2023-02-17T06:24:54;15.40;50.90
22383;DHT22;11359;45.802;13.530;2023-02-17T06:27:20;15.50;50.90
22383;DHT22;11359;45.802;13.530;2023-02-17T06:29:46;15.50;50.80
22383;DHT22;11359;45.802;13.530;2023-02-17T06:32:11;15.60;50.80
22383;DHT22;11359;45.802;13.530;2023-02-17T06:34:37;15.60;50.70
22383;DHT22;11359;45.802;13.530;2023-02-17T06:37:03;15.70;50.70
22383;DHT22;11359;45.802;13.530;2023-02-17T06:39:29;15.80;50.60
22383;DHT22;11359;45.802;13.530;2023-02-17T06:41:54;15.80;50.50
22383;DHT22;11359;45.802;13.530;2023-02-17T06:44:20;15.90;50.40
22383;DHT22;11359;45.802;13.530;2023-02-17T06:46:45;15.90;50.40
22383;DHT22;11359;45.802;13.530;2023-02-17T06:49:13;15.90;50.30
22383;DHT22;11359;45.802;13.530;2023-02-17T06:51:39;15.90;50.30
22383;DHT22;11359;45.802;13.530;2023-02-17T06:54:06;16.00;50.30
22383;DHT22;11359;45.802;13.530;2023-02-17T06:56:31;16.10;50.30
22383;DHT22;11359;45.802;13.530;2023-02-17T06:58:57;16.10;50.20
22383;DHT22;11359;45.802;13.530;2023-02-17T07:01:24;16.10;50.20
22383;DHT22;11359;45.802;13.530;2023-02-17T07:03:51;16.20;50.10
22383;DHT22;11359;45.802;13.530;2023-02-17T07:06:17;16.20;50.10
22383;DHT22;11359;45.802;13.530;2023-02-17T07:08:43;16.20;50.00
22383;DHT22;11359;45.802;13.530;2023-02-17T07:11:11;16.30;50.00
22383;DHT22;11359;45.802;13.530;2023-02-17T07:13:37;16.30;50.00
22383;DHT22;11359;45.802;13.530;2023-02-17T07:16:04;16.30;49.90
22383;DHT22;11359;45.802;13.530;2023-02-17T07:18:29;16.40;50.00
22383;DHT22;11359;45.802;13.530;2023-02-17T07:20:55;16.40;50.00
22383;DHT22;11359;45.802;13.530;2023-02-17T07:23:21;16.50;49.90
22383;DHT22;11359;45.802;13.530;2023-02-17T07:25:47;16.50;49.80
22383;DHT22;11359;45.802;13.530;2023-02-17T07:28:12;16.40;49.80
22383;DHT22;11359;45.802;13.530;2023-02-17T07:30:40;16.50;49.70
22383;DHT22;11359;45.802;13.530;2023-02-17T07:33:07;16.50;49.70
22383;DHT22;11359;45.802;13.530;2023-02-17T07:35:33;16.60;49.80
22383;DHT22;11359;45.802;13.530;2023-02-17T07:37:59;16.50;49.70
22383;DHT22;11359;45.802;13.530;2023-02-17T07:40:26;16.60;49.60
22383;DHT22;11359;45.802;13.530;2023-02-17T07:42:52;16.60;49.60
22383;DHT22;11359;45.802;13.530;2023-02-17T07:45:18;16.60;49.60
22383;DHT22;11359;45.802;13.530;2023-02-17T07:47:44;16.60;49.60
22383;DHT22;11359;45.802;13.530;2023-02-17T07:50:10;16.60;49.60
22383;DHT22;11359;45.802;13.530;2023-02-17T07:52:36;16.60;49.60
22383;DHT22;11359;45.802;13.530;2023-02-17T07:55:02;16.60;49.60
22383;DHT22;11359;45.802;13.530;2023-02-17T07:57:28;16.60;49.60
22383;DHT22;11359;45.802;13.530;2023-02-17T07:59:54;16.60;49.60
22383;DHT22;11359;45.802;13.530;2023-02-17T08:02:19;16.60;49.60
22383;DHT22;11359;45.802;13.530;2023-02-17T08:04:45;16.60;49.50
22383;DHT22;11359;45.802;13.530;2023-02-17T08:07:11;16.60;49.50
22383;DHT22;11359;45.802;13.530;2023-02-17T08:09:39;16.60;49.50
22383;DHT22;11359;45.802;13.530;2023-02-17T08:12:24;16.60;49.50
22383;DHT22;11359;45.802;13.530;2023-02-17T08:15:08;16.60;49.50
22383;DHT22;11359;45.802;13.530;2023-02-17T08:17:34;16.60;49.50
22383;DHT22;11359;45.802;13.530;2023-02-17T08:20:00;16.60;49.50
22383;DHT22;11359;45.802;13.530;2023-02-17T08:22:26;16.50;49.40
22383;DHT22;11359;45.802;13.530;2023-02-17T08:24:52;16.50;49.50
22383;DHT22;11359;45.802;13.530;2023-02-17T08:27:18;16.50;49.50
22383;DHT22;11359;45.802;13.530;2023-02-17T08:29:44;16.60;49.50
22383;DHT22;11359;45.802;13.530;2023-02-17T08:32:10;16.50;49.50
22383;DHT22;11359;45.802;13.530;2023-02-17T08:34:37;16.50;49.50
22383;DHT22;11359;45.802;13.530;2023-02-17T08:37:04;16.50;49.50
22383;DHT22;11359;45.802;13.530;2023-02-17T08:39:31;16.50;49.50
22383;DHT22;11359;45.802;13.530;2023-02-17T08:41:56;16.50;49.60
22383;DHT22;11359;45.802;13.530;2023-02-17T08:44:22;16.50;49.60
22383;DHT22;11359;45.802;13.530;2023-02-17T08:46:49;16.50;49.60
22383;DHT22;11359;45.802;13.530;2023-02-17T08:49:18;16.50;50.20
22383;DHT22;11359;45.802;13.530;2023-02-17T08:51:44;16.50;49.60
22383;DHT22;11359;45.802;13.530;2023-02-17T08:54:11;16.50;49.60
22383;DHT22;11359;45.802;13.530;2023-02-17T08:56:38;16.50;49.70
22383;DHT22;11359;45.802;13.530;2023-02-17T08:59:06;16.50;49.70
22383;DHT22;11359;45.802;13.530;2023-02-17T09:01:32;16.50;49.70
22383;DHT22;11359;45.802;13.530;2023-02-17T09:04:00;16.50;49.70
22383;DHT22;11359;45.802;13.530;2023-02-17T09:06:41;16.50;49.70
22383;DHT22;11359;45.802;13.530;2023-02-17T09:09:10;16.50;49.70
22383;DHT22;11359;45.802;13.530;2023-02-17T09:11:37;16.50;49.70
22383;DHT22;11359;45.802;13.530;2023-02-17T09:14:04;16.50;49.70
22383;DHT22;11359;45.802;13.530;2023-02-17T09:16:29;16.50;49.70
22383;DHT22;11359;45.802;13.530;2023-02-17T09:18:55;16.60;49.70
22383;DHT22;11359;45.802;13.530;2023-02-17T09:21:21;16.50;49.60
22383;DHT22;11359;45.802;13.530;2023-02-17T09:23:47;16.50;49.60
22383;DHT22;11359;45.802;13.530;2023-02-17T09:26:14;16.50;49.60
22383;DHT22;11359;45.802;13.530;2023-02-17T09:28:41;16.50;49.60
22383;DHT22;11359;45.802;13.530;2023-02-17T09:31:17;16.50;49.60
22383;DHT22;11359;45.802;13.530;2023-02-17T09:33:43;16.50;49.60
22383;DHT22;11359;45.802;13.530;2023-02-17T09:36:12;16.50;49.60
22383;DHT22;11359;45.802;13.530;2023-02-17T09:38:39;16.50;49.60
22383;DHT22;11359;45.802;13.530;2023-02-17T09:41:15;16.50;49.70
22383;DHT22;11359;45.802;13.530;2023-02-17T09:43:42;16.50;49.70
22383;DHT22;11359;45.802;13.530;2023-02-17T09:46:14;16.50;49.70
22383;DHT22;11359;45.802;13.530;2023-02-17T09:48:42;16.50;49.70
22383;DHT22;11359;45.802;13.530;2023-02-17T09:51:25;16.50;49.60
22383;DHT22;11359;45.802;13.530;2023-02-17T09:54:05;16.50;49.60
22383;DHT22;11359;45.802;13.530;2023-02-17T09:56:45;16.50;49.60
22383;DHT22;11359;45.802;13.530;2023-02-17T10:01:56;16.50;49.60
22383;DHT22;11359;45.802;13.530;2023-02-17T10:04:26;16.50;49.60
22383;DHT22;11359;45.802;13.530;2023-02-17T10:07:26;16.40;49.60
22383;DHT22;11359;45.802;13.530;2023-02-17T10:10:02;16.40;49.60
22383;DHT22;11359;45.802;13.530;2023-02-17T10:12:29;16.40;49.60
22383;DHT22;11359;45.802;13.530;2023-02-17T10:15:34;16.40;49.70
22383;DHT22;11359;45.802;13.530;2023-02-17T10:18:39;16.40;49.70
22383;DHT22;11359;45.802;13.530;2023-02-17T10:21:01;16.30;49.70
22383;DHT22;11359;45.802;13.530;2023-02-17T10:23:29;16.30;49.70
22383;DHT22;11359;45.802;13.530;2023-02-17T10:26:11;16.30;49.70
22383;DHT22;11359;45.802;13.530;2023-02-17T10:28:58;16.30;49.70
22383;DHT22;11359;45.802;13.530;2023-02-17T10:31:46;16.30;49.70
22383;DHT22;11359;45.802;13.530;2023-02-17T10:37:11;16.20;49.80
22383;DHT22;11359;45.802;13.530;2023-02-17T10:39:52;16.20;49.70
22383;DHT22;11359;45.802;13.530;2023-02-17T10:42:29;16.20;49.70
22383;DHT22;11359;45.802;13.530;2023-02-17T10:47:40;16.20;49.80
22383;DHT22;11359;45.802;13.530;2023-02-17T10:50:17;16.10;50.50
22383;DHT22;11359;45.802;13.530;2023-02-17T10:52:43;16.10;49.80
22383;DHT22;11359;45.802;13.530;2023-02-17T10:57:45;16.10;49.90
22383;DHT22;11359;45.802;13.530;2023-02-17T11:00:16;16.10;49.90
22383;DHT22;11359;45.802;13.530;2023-02-17T11:02:44;16.10;49.90
22383;DHT22;11359;45.802;13.530;2023-02-17T11:08:42;16.10;50.00
22383;DHT22;11359;45.802;13.530;2023-02-17T11:10:40;16.00;50.00
22383;DHT22;11359;45.802;13.530;2023-02-17T11:15:57;16.00;50.00
22383;DHT22;11359;45.802;13.530;2023-02-17T11:18:30;16.00;50.00
22383;DHT22;11359;45.802;13.530;2023-02-17T11:21:07;16.00;50.00
22383;DHT22;11359;45.802;13.530;2023-02-17T11:23:33;16.00;50.00
22383;DHT22;11359;45.802;13.530;2023-02-17T11:26:09;16.00;50.10
22383;DHT22;11359;45.802;13.530;2023-02-17T11:28:35;16.00;50.10
22383;DHT22;11359;45.802;13.530;2023-02-17T11:31:01;16.00;50.20
22383;DHT22;11359;45.802;13.530;2023-02-17T11:33:34;16.00;50.20
22383;DHT22;11359;45.802;13.530;2023-02-17T11:36:02;16.00;50.20
22383;DHT22;11359;45.802;13.530;2023-02-17T11:41:03;16.00;50.30
22383;DHT22;11359;45.802;13.530;2023-02-17T11:43:31;16.00;50.30
22383;DHT22;11359;45.802;13.530;2023-02-17T11:56:35;16.20;50.40
22383;DHT22;11359;45.802;13.530;2023-02-17T12:05:04;16.30;50.40
22383;DHT22;11359;45.802;13.530;2023-02-17T12:10:18;16.30;50.40
22383;DHT22;11359;45.802;13.530;2023-02-17T12:15:48;16.40;50.40
22383;DHT22;11359;45.802;13.530;2023-02-17T12:18:55;16.50;50.50
22383;DHT22;11359;45.802;13.530;2023-02-17T12:35:18;16.80;50.30
22383;DHT22;11359;45.802;13.530;2023-02-17T12:43:27;17.00;50.10
22383;DHT22;11359;45.802;13.530;2023-02-17T12:45:58;17.10;50.70
22383;DHT22;11359;45.802;13.530;2023-02-17T12:48:34;17.10;50.00
22383;DHT22;11359;45.802;13.530;2023-02-17T12:51:25;17.20;49.90
22383;DHT22;11359;45.802;13.530;2023-02-17T12:53:57;17.20;49.90
22383;DHT22;11359;45.802;13.530;2023-02-17T12:59:04;17.40;49.90
22383;DHT22;11359;45.802;13.530;2023-02-17T13:01:37;17.50;49.80
22383;DHT22;11359;45.802;13.530;2023-02-17T13:04:05;17.50;49.70
22383;DHT22;11359;45.802;13.530;2023-02-17T13:06:40;17.60;49.60
22383;DHT22;11359;45.802;13.530;2023-02-17T13:11:39;17.80;49.50
22383;DHT22;11359;45.802;13.530;2023-02-17T13:14:39;17.80;49.50
22383;DHT22;11359;45.802;13.530;2023-02-17T13:20:23;17.90;49.20
22383;DHT22;11359;45.802;13.530;2023-02-17T13:22:49;18.00;49.10
22383;DHT22;11359;45.802;13.530;2023-02-17T13:25:28;18.00;49.00
22383;DHT22;11359;45.802;13.530;2023-02-17T13:27:57;18.00;49.00
22383;DHT22;11359;45.802;13.530;2023-02-17T13:33:04;18.10;48.70
22383;DHT22;11359;45.802;13.530;2023-02-17T13:35:33;18.10;48.60
22383;DHT22;11359;45.802;13.530;2023-02-17T13:37:59;18.20;48.60
22383;DHT22;11359;45.802;13.530;2023-02-17T13:40:32;18.20;48.50
22383;DHT22;11359;45.802;13.530;2023-02-17T13:43:15;18.20;48.40
22383;DHT22;11359;45.802;13.530;2023-02-17T13:45:52;18.30;48.40
22383;DHT22;11359;45.802;13.530;2023-02-17T13:48:25;18.30;48.30
22383;DHT22;11359;45.802;13.530;2023-02-17T13:50:54;18.30;48.30
22383;DHT22;11359;45.802;13.530;2023-02-17T13:53:38;18.30;48.20
22383;DHT22;11359;45.802;13.530;2023-02-17T13:56:08;18.40;48.20
22383;DHT22;11359;45.802;13.530;2023-02-17T13:58:39;18.40;48.20
22383;DHT22;11359;45.802;13.530;2023-02-17T14:01:11;18.40;48.10
22383;DHT22;11359;45.802;13.530;2023-02-17T14:03:45;18.50;48.00
22383;DHT22;11359;45.802;13.530;2023-02-17T14:06:21;18.50;47.90
22383;DHT22;11359;45.802;13.530;2023-02-17T14:08:48;18.50;47.80
22383;DHT22;11359;45.802;13.530;2023-02-17T14:11:17;18.50;47.70
22383;DHT22;11359;45.802;13.530;2023-02-17T14:13:46;18.50;47.70
22383;DHT22;11359;45.802;13.530;2023-02-17T14:16:32;18.50;47.60
22383;DHT22;11359;45.802;13.530;2023-02-17T14:21:29;18.60;47.70
22383;DHT22;11359;45.802;13.530;2023-02-17T14:23:57;18.60;47.70
22383;DHT22;11359;45.802;13.530;2023-02-17T14:26:43;18.70;47.70
22383;DHT22;11359;45.802;13.530;2023-02-17T14:29:11;18.70;47.60
22383;DHT22;11359;45.802;13.530;2023-02-17T14:31:46;18.70;47.60
22383;DHT22;11359;45.802;13.530;2023-02-17T14:36:49;18.80;47.50
22383;DHT22;11359;45.802;13.530;2023-02-17T14:39:15;18.90;47.40
22383;DHT22;11359;45.802;13.530;2023-02-17T14:41:41;18.90;47.40
22383;DHT22;11359;45.802;13.530;2023-02-17T14:44:07;19.00;47.30
22383;DHT22;11359;45.802;13.530;2023-02-17T14:46:34;19.00;47.20
22383;DHT22;11359;45.802;13.530;2023-02-17T14:49:00;19.00;47.10
22383;DHT22;11359;45.802;13.530;2023-02-17T14:51:34;19.10;47.10
22383;DHT22;11359;45.802;13.530;2023-02-17T14:54:02;19.10;47.00
22383;DHT22;11359;45.802;13.530;2023-02-17T14:56:42;19.10;46.90
22383;DHT22;11359;45.802;13.530;2023-02-17T14:59:11;19.20;46.80
22383;DHT22;11359;45.802;13.530;2023-02-17T15:01:38;19.20;46.80
22383;DHT22;11359;45.802;13.530;2023-02-17T15:04:05;19.20;46.70
22383;DHT22;11359;45.802;13.530;2023-02-17T15:06:42;19.20;46.70
22383;DHT22;11359;45.802;13.530;2023-02-17T15:09:13;19.30;46.60
22383;DHT22;11359;45.802;13.530;2023-02-17T15:11:40;19.30;46.50
22383;DHT22;11359;45.802;13.530;2023-02-17T15:14:12;19.30;46.50
22383;DHT22;11359;45.802;13.530;2023-02-17T15:16:38;19.30;46.40
22383;DHT22;11359;45.802;13.530;2023-02-17T15:19:07;19.40;46.40
22383;DHT22;11359;45.802;13.530;2023-02-17T15:21:34;19.40;46.30
22383;DHT22;11359;45.802;13.530;2023-02-17T15:24:07;19.40;46.30
22383;DHT22;11359;45.802;13.530;2023-02-17T15:26:38;19.40;46.30
22383;DHT22;11359;45.802;13.530;2023-02-17T15:29:04;19.50;46.30
22383;DHT22;11359;45.802;13.530;2023-02-17T15:31:32;19.50;46.30
22383;DHT22;11359;45.802;13.530;2023-02-17T15:34:00;19.50;46.10
22383;DHT22;11359;45.802;13.530;2023-02-17T15:36:27;19.50;46.10
22383;DHT22;11359;45.802;13.530;2023-02-17T15:38:53;19.50;46.00
22383;DHT22;11359;45.802;13.530;2023-02-17T15:41:22;19.50;45.90
22383;DHT22;11359;45.802;13.530;2023-02-17T15:43:49;19.50;45.80
22383;DHT22;11359;45.802;13.530;2023-02-17T15:46:17;19.60;45.80
22383;DHT22;11359;45.802;13.530;2023-02-17T15:48:46;19.60;45.80
22383;DHT22;11359;45.802;13.530;2023-02-17T15:51:17;19.60;45.80
22383;DHT22;11359;45.802;13.530;2023-02-17T15:53:45;19.60;45.70
22383;DHT22;11359;45.802;13.530;2023-02-17T15:56:17;19.60;45.60
22383;DHT22;11359;45.802;13.530;2023-02-17T15:58:45;19.60;45.50
22383;DHT22;11359;45.802;13.530;2023-02-17T16:01:16;19.60;45.40
22383;DHT22;11359;45.802;13.530;2023-02-17T16:03:46;19.60;45.40
22383;DHT22;11359;45.802;13.530;2023-02-17T16:06:11;19.60;45.40
22383;DHT22;11359;45.802;13.530;2023-02-17T16:08:37;19.60;45.40
22383;DHT22;11359;45.802;13.530;2023-02-17T16:11:03;19.60;45.40
22383;DHT22;11359;45.802;13.530;2023-02-17T16:13:29;19.60;45.40
22383;DHT22;11359;45.802;13.530;2023-02-17T16:15:57;19.60;45.40
22383;DHT22;11359;45.802;13.530;2023-02-17T16:18:23;19.70;45.40
22383;DHT22;11359;45.802;13.530;2023-02-17T16:20:49;19.70;45.30
22383;DHT22;11359;45.802;13.530;2023-02-17T16:23:16;19.70;45.30
22383;DHT22;11359;45.802;13.530;2023-02-17T16:25:44;19.70;45.20
22383;DHT22;11359;45.802;13.530;2023-02-17T16:28:19;19.70;45.10
22383;DHT22;11359;45.802;13.530;2023-02-17T16:30:45;19.60;45.00
22383;DHT22;11359;45.802;13.530;2023-02-17T16:33:17;19.60;45.00
22383;DHT22;11359;45.802;13.530;2023-02-17T16:35:43;19.60;45.00
22383;DHT22;11359;45.802;13.530;2023-02-17T16:38:15;19.60;45.00
22383;DHT22;11359;45.802;13.530;2023-02-17T16:40:44;19.60;45.00
22383;DHT22;11359;45.802;13.530;2023-02-17T16:43:22;19.60;45.00
22383;DHT22;11359;45.802;13.530;2023-02-17T16:45:57;19.60;45.00
22383;DHT22;11359;45.802;13.530;2023-02-17T16:48:26;19.60;45.00
22383;DHT22;11359;45.802;13.530;2023-02-17T16:50:52;19.60;45.00
22383;DHT22;11359;45.802;13.530;2023-02-17T16:53:19;19.60;45.00
22383;DHT22;11359;45.802;13.530;2023-02-17T16:55:44;19.60;45.00
22383;DHT22;11359;45.802;13.530;2023-02-17T16:58:17;19.60;45.00
22383;DHT22;11359;45.802;13.530;2023-02-17T17:00:45;19.70;45.00
22383;DHT22;11359;45.802;13.530;2023-02-17T17:03:11;19.70;45.00
22383;DHT22;11359;45.802;13.530;2023-02-17T17:05:37;19.70;45.00
22383;DHT22;11359;45.802;13.530;2023-02-17T17:08:05;19.70;45.00
22383;DHT22;11359;45.802;13.530;2023-02-17T17:10:32;19.70;45.00
22383;DHT22;11359;45.802;13.530;2023-02-17T17:12:58;19.70;44.90